sensor_id;sensor_type;location;lat;lon;timestamp;pressure;altitude;pressure_sealevel;temperature;humidity
7018;BME280;3549;42.162;24.726;2022-11-03T00:01:54;47492.16;;;-141.97;37.95
7018;BME280;3549;42.162;24.726;2022-11-03T00:04:20;47453.72;;;-141.97;37.57
7018;BME280;3549;42.162;24.726;2022-11-03T00:06:51;47480.63;;;-141.97;36.96
7018;BME280;3549;42.162;24.726;2022-11-03T00:09:18;47471.03;;;-141.97;36.30
7018;BME280;3549;42.162;24.726;2022-11-03T00:11:45;47438.34;;;-141.97;35.86
7018;BME280;3549;42.162;24.726;2022-11-03T00:14:11;47453.72;;;-141.97;35.65
7018;BME280;3549;42.162;24.726;2022-11-03T00:16:38;47497.94;;;-141.97;35.48
7018;BME280;3549;42.162;24.726;2022-11-03T00:19:04;47471.03;;;-141.97;35.63
7018;BME280;3549;42.162;24.726;2022-11-03T00:21:30;47382.63;;;-141.97;35.48
7018;BME280;3549;42.162;24.726;2022-11-03T00:23:55;47476.78;;;-141.97;35.40
7018;BME280;3549;42.162;24.726;2022-11-03T00:26:26;47447.97;;;-141.97;35.46
7018;BME280;3549;42.162;24.726;2022-11-03T00:28:58;47459.50;;;-141.97;35.44
7018;BME280;3549;42.162;24.726;2022-11-03T00:31:29;47455.66;;;-141.97;35.46
7018;BME280;3549;42.162;24.726;2022-11-03T00:33:56;47453.72;;;-141.97;35.50
7018;BME280;3549;42.162;24.726;2022-11-03T00:36:26;47461.41;;;-141.97;35.52
7018;BME280;3549;42.162;24.726;2022-11-03T00:38:55;47476.78;;;-141.97;35.53
7018;BME280;3549;42.162;24.726;2022-11-03T00:41:21;47446.03;;;-141.97;35.51
7018;BME280;3549;42.162;24.726;2022-11-03T00:43:48;47524.84;;;-141.97;35.82
7018;BME280;3549;42.162;24.726;2022-11-03T00:46:15;47417.22;;;-141.97;35.75
7018;BME280;3549;42.162;24.726;2022-11-03T00:48:40;47413.38;;;-141.97;35.92
7018;BME280;3549;42.162;24.726;2022-11-03T00:51:14;47446.03;;;-141.97;35.83
7018;BME280;3549;42.162;24.726;2022-11-03T00:53:41;47444.13;;;-141.97;35.83
7018;BME280;3549;42.162;24.726;2022-11-03T00:56:12;47503.69;;;-141.97;35.84
7018;BME280;3549;42.162;24.726;2022-11-03T00:58:40;47497.94;;;-141.97;35.72
7018;BME280;3549;42.162;24.726;2022-11-03T01:03:38;47492.16;;;-141.97;35.72
7018;BME280;3549;42.162;24.726;2022-11-03T01:06:08;47686.31;;;-141.97;35.80
7018;BME280;3549;42.162;24.726;2022-11-03T01:08:54;47472.94;;;-141.97;35.61
7018;BME280;3549;42.162;24.726;2022-11-03T01:11:21;47430.66;;;-141.97;35.71
7018;BME280;3549;42.162;24.726;2022-11-03T01:14:07;47463.34;;;-141.97;35.76
7018;BME280;3549;42.162;24.726;2022-11-03T01:16:33;47449.88;;;-141.97;35.63
7018;BME280;3549;42.162;24.726;2022-11-03T01:18:59;47449.88;;;-141.97;35.73
7018;BME280;3549;42.162;24.726;2022-11-03T01:21:24;47476.78;;;-141.97;35.84
7018;BME280;3549;42.162;24.726;2022-11-03T01:23:50;47438.34;;;-141.97;36.22
7018;BME280;3549;42.162;24.726;2022-11-03T01:26:16;47413.38;;;-141.97;36.41
7018;BME280;3549;42.162;24.726;2022-11-03T01:28:45;47444.13;;;-141.97;36.35
7018;BME280;3549;42.162;24.726;2022-11-03T01:31:22;47480.63;;;-141.97;36.35
7018;BME280;3549;42.162;24.726;2022-11-03T01:33:52;47494.09;;;-141.97;36.44
7018;BME280;3549;42.162;24.726;2022-11-03T01:36:19;47501.78;;;-141.97;36.57
7018;BME280;3549;42.162;24.726;2022-11-03T01:38:44;47490.25;;;-141.97;36.70
7018;BME280;3549;42.162;24.726;2022-11-03T01:41:15;47461.41;;;-141.97;36.70
7018;BME280;3549;42.162;24.726;2022-11-03T01:43:41;47480.63;;;-141.97;36.91
7018;BME280;3549;42.162;24.726;2022-11-03T01:46:29;47507.53;;;-141.97;37.27
7018;BME280;3549;42.162;24.726;2022-11-03T01:49:02;47463.34;;;-141.97;37.39
7018;BME280;3549;42.162;24.726;2022-11-03T01:51:32;47484.47;;;-141.97;37.21
7018;BME280;3549;42.162;24.726;2022-11-03T01:54:02;47472.94;;;-141.97;37.25
7018;BME280;3549;42.162;24.726;2022-11-03T01:56:31;47472.94;;;-141.97;37.02
7018;BME280;3549;42.162;24.726;2022-11-03T01:58:59;47484.47;;;-141.97;36.76
7018;BME280;3549;42.162;24.726;2022-11-03T02:01:25;47494.09;;;-141.97;36.32
7018;BME280;3549;42.162;24.726;2022-11-03T02:03:55;47461.41;;;-141.97;36.09
7018;BME280;3549;42.162;24.726;2022-11-03T02:06:24;47601.72;;;-141.97;35.95
7018;BME280;3549;42.162;24.726;2022-11-03T02:09:08;47486.41;;;-141.97;35.81
7018;BME280;3549;42.162;24.726;2022-11-03T02:11:34;47465.25;;;-141.97;35.54
7018;BME280;3549;42.162;24.726;2022-11-03T02:14:19;47449.88;;;-141.97;35.41
7018;BME280;3549;42.162;24.726;2022-11-03T02:16:52;47488.31;;;-141.97;35.26
7018;BME280;3549;42.162;24.726;2022-11-03T02:19:28;47457.56;;;-141.97;35.05
7018;BME280;3549;42.162;24.726;2022-11-03T02:27:07;47469.09;;;-141.97;35.06
7018;BME280;3549;42.162;24.726;2022-11-03T02:29:32;47376.84;;;-141.97;35.20
7018;BME280;3549;42.162;24.726;2022-11-03T02:32:06;47482.56;;;-141.97;35.09
7018;BME280;3549;42.162;24.726;2022-11-03T02:34:47;47494.09;;;-141.97;35.08
7018;BME280;3549;42.162;24.726;2022-11-03T02:37:20;47374.94;;;-141.97;35.05
7018;BME280;3549;42.162;24.726;2022-11-03T02:39:51;47472.94;;;-141.97;34.74
7018;BME280;3549;42.162;24.726;2022-11-03T02:42:18;47465.25;;;-141.97;34.76
7018;BME280;3549;42.162;24.726;2022-11-03T02:44:45;47642.09;;;-141.97;34.62
7018;BME280;3549;42.162;24.726;2022-11-03T02:47:15;47499.84;;;-141.97;34.53
7018;BME280;3549;42.162;24.726;2022-11-03T02:49:49;47459.50;;;-141.97;34.39
7018;BME280;3549;42.162;24.726;2022-11-03T02:55:19;47597.88;;;-141.97;34.35
7018;BME280;3549;42.162;24.726;2022-11-03T02:57:52;47503.69;;;-141.97;34.42
7018;BME280;3549;42.162;24.726;2022-11-03T03:00:20;47459.50;;;-141.97;34.50
7018;BME280;3549;42.162;24.726;2022-11-03T03:05:22;47415.28;;;-141.97;34.37
7018;BME280;3549;42.162;24.726;2022-11-03T03:07:51;47465.25;;;-141.97;34.67
7018;BME280;3549;42.162;24.726;2022-11-03T03:10:24;47472.94;;;-141.97;34.65
7018;BME280;3549;42.162;24.726;2022-11-03T03:12:54;47482.56;;;-141.97;34.76
7018;BME280;3549;42.162;24.726;2022-11-03T03:15:32;47463.34;;;-141.97;34.79
7018;BME280;3549;42.162;24.726;2022-11-03T03:18:07;47474.88;;;-141.97;34.81
7018;BME280;3549;42.162;24.726;2022-11-03T03:23:18;47471.03;;;-141.97;34.94
7018;BME280;3549;42.162;24.726;2022-11-03T03:26:07;47444.13;;;-141.97;35.09
7018;BME280;3549;42.162;24.726;2022-11-03T03:28:46;47463.34;;;-141.97;35.13
7018;BME280;3549;42.162;24.726;2022-11-03T03:31:15;47503.69;;;-141.97;35.23
7018;BME280;3549;42.162;24.726;2022-11-03T03:33:44;47661.31;;;-141.97;35.26
7018;BME280;3549;42.162;24.726;2022-11-03T03:36:13;47471.03;;;-141.97;35.05
7018;BME280;3549;42.162;24.726;2022-11-03T03:38:43;47461.41;;;-141.97;35.08
7018;BME280;3549;42.162;24.726;2022-11-03T03:41:13;47530.59;;;-141.97;35.16
7018;BME280;3549;42.162;24.726;2022-11-03T03:43:47;47399.91;;;-141.97;35.36
7018;BME280;3549;42.162;24.726;2022-11-03T03:46:14;47584.44;;;-141.97;35.38
7018;BME280;3549;42.162;24.726;2022-11-03T03:48:40;47561.38;;;-141.97;35.69
7018;BME280;3549;42.162;24.726;2022-11-03T03:51:07;47442.19;;;-141.97;35.60
7018;BME280;3549;42.162;24.726;2022-11-03T03:53:33;47453.72;;;-141.97;35.58
7018;BME280;3549;42.162;24.726;2022-11-03T03:55:58;47592.13;;;-141.97;35.69
7018;BME280;3549;42.162;24.726;2022-11-03T03:58:24;47471.03;;;-141.97;35.48
7018;BME280;3549;42.162;24.726;2022-11-03T04:00:50;47446.03;;;-141.97;35.20
7018;BME280;3549;42.162;24.726;2022-11-03T04:03:21;47488.31;;;-141.97;35.26
7018;BME280;3549;42.162;24.726;2022-11-03T04:05:47;47469.09;;;-141.97;35.37
7018;BME280;3549;42.162;24.726;2022-11-03T04:08:14;47465.25;;;-141.97;35.31
7018;BME280;3549;42.162;24.726;2022-11-03T04:10:39;47463.34;;;-141.97;35.40
7018;BME280;3549;42.162;24.726;2022-11-03T04:13:05;47390.31;;;-141.97;35.30
7018;BME280;3549;42.162;24.726;2022-11-03T04:15:49;47457.56;;;-141.97;35.15
7018;BME280;3549;42.162;24.726;2022-11-03T04:18:33;47484.47;;;-141.97;35.14
7018;BME280;3549;42.162;24.726;2022-11-03T04:21:17;47496.00;;;-141.97;35.18
7018;BME280;3549;42.162;24.726;2022-11-03T04:24:01;47461.41;;;-141.97;35.31
7018;BME280;3549;42.162;24.726;2022-11-03T04:26:27;47430.66;;;-141.97;35.16
7018;BME280;3549;42.162;24.726;2022-11-03T04:28:53;47422.97;;;-141.97;35.02
7018;BME280;3549;42.162;24.726;2022-11-03T04:31:19;47476.78;;;-141.97;34.97
7018;BME280;3549;42.162;24.726;2022-11-03T04:33:46;47471.03;;;-141.97;34.82
7018;BME280;3549;42.162;24.726;2022-11-03T04:36:20;47486.41;;;-141.97;34.76
7018;BME280;3549;42.162;24.726;2022-11-03T04:38:46;47461.41;;;-141.97;34.85
7018;BME280;3549;42.162;24.726;2022-11-03T04:41:19;47422.97;;;-141.97;34.90
7018;BME280;3549;42.162;24.726;2022-11-03T04:43:45;47488.31;;;-141.97;34.96
7018;BME280;3549;42.162;24.726;2022-11-03T04:46:14;47465.25;;;-141.97;35.00
7018;BME280;3549;42.162;24.726;2022-11-03T04:48:41;47449.88;;;-141.97;35.05
7018;BME280;3549;42.162;24.726;2022-11-03T04:51:18;47465.25;;;-141.97;35.10
7018;BME280;3549;42.162;24.726;2022-11-03T04:53:48;47480.63;;;-141.97;34.94
7018;BME280;3549;42.162;24.726;2022-11-03T04:56:16;47459.50;;;-141.97;34.96
7018;BME280;3549;42.162;24.726;2022-11-03T04:58:43;47611.34;;;-141.97;35.23
7018;BME280;3549;42.162;24.726;2022-11-03T05:01:12;47426.81;;;-141.97;35.37
7018;BME280;3549;42.162;24.726;2022-11-03T05:03:39;47472.94;;;-141.97;35.30
7018;BME280;3549;42.162;24.726;2022-11-03T05:08:36;47457.56;;;-141.97;35.42
7018;BME280;3549;42.162;24.726;2022-11-03T05:11:11;47428.75;;;-141.97;35.60
7018;BME280;3549;42.162;24.726;2022-11-03T05:13:38;47534.44;;;-141.97;35.51
7018;BME280;3549;42.162;24.726;2022-11-03T05:16:04;47594.03;;;-141.97;35.52
7018;BME280;3549;42.162;24.726;2022-11-03T05:18:32;47465.25;;;-141.97;35.52
7018;BME280;3549;42.162;24.726;2022-11-03T05:21:11;47472.94;;;-141.97;35.63
7018;BME280;3549;42.162;24.726;2022-11-03T05:23:39;47465.25;;;-141.97;35.58
7018;BME280;3549;42.162;24.726;2022-11-03T05:26:10;47426.81;;;-141.97;35.34
7018;BME280;3549;42.162;24.726;2022-11-03T05:28:41;47488.31;;;-141.97;35.47
7018;BME280;3549;42.162;24.726;2022-11-03T05:31:26;47505.63;;;-141.97;35.63
7018;BME280;3549;42.162;24.726;2022-11-03T05:33:56;47497.94;;;-141.97;35.50
7018;BME280;3549;42.162;24.726;2022-11-03T05:36:23;47453.72;;;-141.97;35.33
7018;BME280;3549;42.162;24.726;2022-11-03T05:38:50;47459.50;;;-141.97;35.64
7018;BME280;3549;42.162;24.726;2022-11-03T05:41:21;47455.66;;;-141.97;35.41
7018;BME280;3549;42.162;24.726;2022-11-03T05:46:18;47432.59;;;-141.97;35.58
7018;BME280;3549;42.162;24.726;2022-11-03T05:48:44;47496.00;;;-141.97;35.60
7018;BME280;3549;42.162;24.726;2022-11-03T05:51:21;47453.72;;;-141.97;35.52
7018;BME280;3549;42.162;24.726;2022-11-03T05:53:50;47465.25;;;-141.97;35.55
7018;BME280;3549;42.162;24.726;2022-11-03T05:56:21;47463.34;;;-141.97;35.46
7018;BME280;3549;42.162;24.726;2022-11-03T05:58:48;47484.47;;;-141.97;35.35
7018;BME280;3549;42.162;24.726;2022-11-03T06:01:27;47630.56;;;-141.97;35.49
7018;BME280;3549;42.162;24.726;2022-11-03T06:03:53;47442.19;;;-141.97;35.40
7018;BME280;3549;42.162;24.726;2022-11-03T06:06:25;47476.78;;;-141.97;35.34
7018;BME280;3549;42.162;24.726;2022-11-03T06:08:52;47438.34;;;-141.97;35.43
7018;BME280;3549;42.162;24.726;2022-11-03T06:11:34;47624.78;;;-141.97;35.32
7018;BME280;3549;42.162;24.726;2022-11-03T06:14:00;47469.09;;;-141.97;35.24
7018;BME280;3549;42.162;24.726;2022-11-03T06:16:43;47447.97;;;-141.97;35.09
7018;BME280;3549;42.162;24.726;2022-11-03T06:19:21;47426.81;;;-141.97;34.97
7018;BME280;3549;42.162;24.726;2022-11-03T06:21:52;47434.50;;;-141.97;34.93
7018;BME280;3549;42.162;24.726;2022-11-03T06:24:20;47463.34;;;-141.97;34.64
7018;BME280;3549;42.162;24.726;2022-11-03T06:26:47;47472.94;;;-141.97;34.79
7018;BME280;3549;42.162;24.726;2022-11-03T06:29:15;47447.97;;;-141.97;34.44
7018;BME280;3549;42.162;24.726;2022-11-03T06:31:42;47465.25;;;-141.97;34.20
7018;BME280;3549;42.162;24.726;2022-11-03T06:34:38;47449.88;;;-141.97;34.07
7018;BME280;3549;42.162;24.726;2022-11-03T06:37:14;47442.19;;;-141.97;34.01
7018;BME280;3549;42.162;24.726;2022-11-03T06:39:41;47449.88;;;-141.97;33.65
7018;BME280;3549;42.162;24.726;2022-11-03T06:42:13;47413.38;;;-141.97;33.61
7018;BME280;3549;42.162;24.726;2022-11-03T06:44:42;47428.75;;;-141.97;33.25
7018;BME280;3549;42.162;24.726;2022-11-03T06:47:18;47447.97;;;-141.97;33.49
7018;BME280;3549;42.162;24.726;2022-11-03T06:49:45;47434.50;;;-141.97;33.35
7018;BME280;3549;42.162;24.726;2022-11-03T06:52:23;47480.63;;;-141.97;32.76
7018;BME280;3549;42.162;24.726;2022-11-03T06:54:54;47430.66;;;-141.97;32.58
7018;BME280;3549;42.162;24.726;2022-11-03T06:57:23;47440.28;;;-141.97;32.08
7018;BME280;3549;42.162;24.726;2022-11-03T06:59:50;47357.63;;;-141.97;32.16
7018;BME280;3549;42.162;24.726;2022-11-03T07:05:21;47463.34;;;-141.97;32.54
7018;BME280;3549;42.162;24.726;2022-11-03T07:07:47;47421.06;;;-141.97;32.81
7018;BME280;3549;42.162;24.726;2022-11-03T07:10:12;47419.13;;;-141.97;32.68
7018;BME280;3549;42.162;24.726;2022-11-03T07:12:39;47434.50;;;-141.97;32.73
7018;BME280;3549;42.162;24.726;2022-11-03T07:15:18;47430.66;;;-141.97;32.63
7018;BME280;3549;42.162;24.726;2022-11-03T07:17:45;47455.66;;;-141.97;32.18
7018;BME280;3549;42.162;24.726;2022-11-03T07:20:14;47415.28;;;-141.97;32.21
7018;BME280;3549;42.162;24.726;2022-11-03T07:22:42;47430.66;;;-141.97;32.74
7018;BME280;3549;42.162;24.726;2022-11-03T07:25:15;47434.50;;;-141.97;33.00
7018;BME280;3549;42.162;24.726;2022-11-03T07:27:41;47453.72;;;-141.97;33.32
7018;BME280;3549;42.162;24.726;2022-11-03T07:32:33;47434.50;;;-141.97;32.90
7018;BME280;3549;42.162;24.726;2022-11-03T07:35:04;47440.28;;;-141.97;32.83
7018;BME280;3549;42.162;24.726;2022-11-03T07:37:35;47469.09;;;-141.97;32.89
7018;BME280;3549;42.162;24.726;2022-11-03T07:40:01;47457.56;;;-141.97;32.68
7018;BME280;3549;42.162;24.726;2022-11-03T07:42:27;47459.50;;;-141.97;32.75
7018;BME280;3549;42.162;24.726;2022-11-03T07:44:54;47351.88;;;-141.97;32.57
7018;BME280;3549;42.162;24.726;2022-11-03T07:47:24;47432.59;;;-141.97;32.63
7018;BME280;3549;42.162;24.726;2022-11-03T07:49:50;47428.75;;;-141.97;32.62
7018;BME280;3549;42.162;24.726;2022-11-03T07:52:20;47432.59;;;-141.97;32.56
7018;BME280;3549;42.162;24.726;2022-11-03T07:54:45;47430.66;;;-141.97;32.65
7018;BME280;3549;42.162;24.726;2022-11-03T07:57:25;47442.19;;;-141.97;32.57
7018;BME280;3549;42.162;24.726;2022-11-03T07:59:53;47440.28;;;-141.97;32.51
7018;BME280;3549;42.162;24.726;2022-11-03T08:02:41;47453.72;;;-141.97;32.44
7018;BME280;3549;42.162;24.726;2022-11-03T08:05:08;47453.72;;;-141.97;32.51
7018;BME280;3549;42.162;24.726;2022-11-03T08:07:33;47436.44;;;-141.97;32.32
7018;BME280;3549;42.162;24.726;2022-11-03T08:09:58;47398.00;;;-141.97;32.13
7018;BME280;3549;42.162;24.726;2022-11-03T08:12:24;47453.72;;;-141.97;32.08
7018;BME280;3549;42.162;24.726;2022-11-03T08:14:49;47330.72;;;-141.97;31.99
7018;BME280;3549;42.162;24.726;2022-11-03T08:17:15;47449.88;;;-141.97;31.58
7018;BME280;3549;42.162;24.726;2022-11-03T08:19:41;47430.66;;;-141.97;31.43
7018;BME280;3549;42.162;24.726;2022-11-03T08:22:06;47342.25;;;-141.97;31.74
7018;BME280;3549;42.162;24.726;2022-11-03T08:24:32;47403.75;;;-141.97;31.67
7018;BME280;3549;42.162;24.726;2022-11-03T08:26:57;47367.25;;;-141.97;31.61
7018;BME280;3549;42.162;24.726;2022-11-03T08:29:22;47388.38;;;-141.97;31.29
7018;BME280;3549;42.162;24.726;2022-11-03T08:31:53;47430.66;;;-141.97;31.91
7018;BME280;3549;42.162;24.726;2022-11-03T08:34:19;47419.13;;;-141.97;31.67
7018;BME280;3549;42.162;24.726;2022-11-03T08:36:45;47419.13;;;-141.97;30.93
7018;BME280;3549;42.162;24.726;2022-11-03T08:39:10;47401.84;;;-141.97;31.05
7018;BME280;3549;42.162;24.726;2022-11-03T08:41:35;47417.22;;;-141.97;31.17
7018;BME280;3549;42.162;24.726;2022-11-03T08:44:01;47365.31;;;-141.97;31.34
7018;BME280;3549;42.162;24.726;2022-11-03T08:46:27;47422.97;;;-141.97;31.26
7018;BME280;3549;42.162;24.726;2022-11-03T08:48:52;47421.06;;;-141.97;31.12
7018;BME280;3549;42.162;24.726;2022-11-03T08:51:18;47419.13;;;-141.97;30.80
7018;BME280;3549;42.162;24.726;2022-11-03T08:53:43;47507.53;;;-141.97;30.57
7018;BME280;3549;42.162;24.726;2022-11-03T08:56:09;47394.16;;;-141.97;30.52
7018;BME280;3549;42.162;24.726;2022-11-03T08:58:35;47419.13;;;-141.97;30.71
7018;BME280;3549;42.162;24.726;2022-11-03T09:01:00;47403.75;;;-141.97;30.43
7018;BME280;3549;42.162;24.726;2022-11-03T09:03:26;47392.22;;;-141.97;30.14
7018;BME280;3549;42.162;24.726;2022-11-03T09:05:51;47399.91;;;-141.97;30.34
7018;BME280;3549;42.162;24.726;2022-11-03T09:08:17;47413.38;;;-141.97;30.62
7018;BME280;3549;42.162;24.726;2022-11-03T09:10:42;47359.56;;;-141.97;30.19
7018;BME280;3549;42.162;24.726;2022-11-03T09:13:08;47401.84;;;-141.97;30.08
7018;BME280;3549;42.162;24.726;2022-11-03T09:15:33;47434.50;;;-141.97;30.09
7018;BME280;3549;42.162;24.726;2022-11-03T09:17:59;47396.06;;;-141.97;30.24
7018;BME280;3549;42.162;24.726;2022-11-03T09:20:25;47403.75;;;-141.97;30.99
7018;BME280;3549;42.162;24.726;2022-11-03T09:22:50;47371.09;;;-141.97;30.60
7018;BME280;3549;42.162;24.726;2022-11-03T09:25:17;47386.47;;;-141.97;30.15
7018;BME280;3549;42.162;24.726;2022-11-03T09:27:43;47373.00;;;-141.97;29.79
7018;BME280;3549;42.162;24.726;2022-11-03T09:30:09;47407.59;;;-141.97;29.50
7018;BME280;3549;42.162;24.726;2022-11-03T09:32:34;47369.16;;;-141.97;29.24
7018;BME280;3549;42.162;24.726;2022-11-03T09:35:00;47403.75;;;-141.97;29.16
7018;BME280;3549;42.162;24.726;2022-11-03T09:37:25;47401.84;;;-141.97;29.29
7018;BME280;3549;42.162;24.726;2022-11-03T09:39:51;47501.78;;;-141.97;28.90
7018;BME280;3549;42.162;24.726;2022-11-03T09:42:17;47382.63;;;-141.97;29.04
7018;BME280;3549;42.162;24.726;2022-11-03T09:44:44;47411.44;;;-141.97;29.27
7018;BME280;3549;42.162;24.726;2022-11-03T09:47:22;47367.25;;;-141.97;29.14
7018;BME280;3549;42.162;24.726;2022-11-03T09:49:48;47342.25;;;-141.97;29.12
7018;BME280;3549;42.162;24.726;2022-11-03T09:52:18;47384.53;;;-141.97;29.27
7018;BME280;3549;42.162;24.726;2022-11-03T09:54:44;47392.22;;;-141.97;29.27
7018;BME280;3549;42.162;24.726;2022-11-03T09:57:12;47367.25;;;-141.97;29.30
7018;BME280;3549;42.162;24.726;2022-11-03T09:59:42;47369.16;;;-141.97;29.06
7018;BME280;3549;42.162;24.726;2022-11-03T10:02:23;47357.63;;;-141.97;29.21
7018;BME280;3549;42.162;24.726;2022-11-03T10:04:54;47396.06;;;-141.97;29.10
7018;BME280;3549;42.162;24.726;2022-11-03T10:07:25;47349.94;;;-141.97;29.19
7018;BME280;3549;42.162;24.726;2022-11-03T10:09:52;47369.16;;;-141.97;29.16
7018;BME280;3549;42.162;24.726;2022-11-03T10:12:20;47373.00;;;-141.97;29.16
7018;BME280;3549;42.162;24.726;2022-11-03T10:14:46;47369.16;;;-141.97;29.37
7018;BME280;3549;42.162;24.726;2022-11-03T10:17:21;47403.75;;;-141.97;29.22
7018;BME280;3549;42.162;24.726;2022-11-03T10:19:51;47349.94;;;-141.97;28.81
7018;BME280;3549;42.162;24.726;2022-11-03T10:22:19;47394.16;;;-141.97;28.92
7018;BME280;3549;42.162;24.726;2022-11-03T10:24:45;47363.41;;;-141.97;29.23
7018;BME280;3549;42.162;24.726;2022-11-03T10:27:22;47363.41;;;-141.97;28.93
7018;BME280;3549;42.162;24.726;2022-11-03T10:30:08;47355.72;;;-141.97;28.55
7018;BME280;3549;42.162;24.726;2022-11-03T10:32:34;47334.56;;;-141.97;28.49
7018;BME280;3549;42.162;24.726;2022-11-03T10:37:55;47340.34;;;-141.97;28.78
7018;BME280;3549;42.162;24.726;2022-11-03T10:40:34;47376.84;;;-141.97;29.15
7018;BME280;3549;42.162;24.726;2022-11-03T10:43:00;47363.41;;;-141.97;29.42
7018;BME280;3549;42.162;24.726;2022-11-03T10:45:25;47369.16;;;-141.97;29.71
7018;BME280;3549;42.162;24.726;2022-11-03T10:48:01;47374.94;;;-141.97;29.34
7018;BME280;3549;42.162;24.726;2022-11-03T10:50:29;47355.72;;;-141.97;29.21
7018;BME280;3549;42.162;24.726;2022-11-03T10:52:55;47369.16;;;-141.97;29.73
7018;BME280;3549;42.162;24.726;2022-11-03T10:55:22;47390.31;;;-141.97;29.94
7018;BME280;3549;42.162;24.726;2022-11-03T10:57:48;47384.53;;;-141.97;29.73
7018;BME280;3549;42.162;24.726;2022-11-03T11:00:18;47365.31;;;-141.97;29.50
7018;BME280;3549;42.162;24.726;2022-11-03T11:02:45;47357.63;;;-141.97;29.63
7018;BME280;3549;42.162;24.726;2022-11-03T11:05:20;47315.34;;;-141.97;29.91
7018;BME280;3549;42.162;24.726;2022-11-03T11:07:48;47357.63;;;-141.97;30.08
7018;BME280;3549;42.162;24.726;2022-11-03T11:10:16;47405.69;;;-141.97;29.63
7018;BME280;3549;42.162;24.726;2022-11-03T11:13:22;47388.38;;;-141.97;29.58
7018;BME280;3549;42.162;24.726;2022-11-03T11:23:46;47376.84;;;-141.97;28.95
7018;BME280;3549;42.162;24.726;2022-11-03T11:26:29;47363.41;;;-141.97;29.09
7018;BME280;3549;42.162;24.726;2022-11-03T11:31:43;47342.25;;;-141.97;29.18
7018;BME280;3549;42.162;24.726;2022-11-03T11:42:16;47355.72;;;-141.97;29.16
7018;BME280;3549;42.162;24.726;2022-11-03T11:50:23;47390.31;;;-141.97;29.80
7018;BME280;3549;42.162;24.726;2022-11-03T11:58:04;47338.41;;;-141.97;29.66
7018;BME280;3549;42.162;24.726;2022-11-03T12:00:32;47369.16;;;-141.97;29.75
7018;BME280;3549;42.162;24.726;2022-11-03T12:03:00;47378.78;;;-141.97;29.59
7018;BME280;3549;42.162;24.726;2022-11-03T12:05:28;47346.09;;;-141.97;29.04
7018;BME280;3549;42.162;24.726;2022-11-03T12:07:54;47388.38;;;-141.97;29.26
7018;BME280;3549;42.162;24.726;2022-11-03T12:10:22;47390.31;;;-141.97;29.26
7018;BME280;3549;42.162;24.726;2022-11-03T12:12:50;47353.78;;;-141.97;29.17
7018;BME280;3549;42.162;24.726;2022-11-03T12:15:54;47348.03;;;-141.97;28.99
7018;BME280;3549;42.162;24.726;2022-11-03T12:21:08;47349.94;;;-141.97;28.94
7018;BME280;3549;42.162;24.726;2022-11-03T12:23:42;47367.25;;;-141.97;29.21
7018;BME280;3549;42.162;24.726;2022-11-03T12:28:51;47349.94;;;-141.97;29.41
7018;BME280;3549;42.162;24.726;2022-11-03T12:31:16;47363.41;;;-141.97;29.25
7018;BME280;3549;42.162;24.726;2022-11-03T12:33:41;47361.47;;;-141.97;29.28
7018;BME280;3549;42.162;24.726;2022-11-03T12:36:07;47332.66;;;-141.97;29.32
7018;BME280;3549;42.162;24.726;2022-11-03T12:38:33;47359.56;;;-141.97;29.36
7018;BME280;3549;42.162;24.726;2022-11-03T12:40:58;47361.47;;;-141.97;29.73
7018;BME280;3549;42.162;24.726;2022-11-03T12:43:43;47380.69;;;-141.97;30.47
7018;BME280;3549;42.162;24.726;2022-11-03T12:46:09;47363.41;;;-141.97;30.36
7018;BME280;3549;42.162;24.726;2022-11-03T12:48:34;47369.16;;;-141.97;30.02
7018;BME280;3549;42.162;24.726;2022-11-03T12:50:59;47357.63;;;-141.97;30.02
7018;BME280;3549;42.162;24.726;2022-11-03T12:53:25;47357.63;;;-141.97;30.31
7018;BME280;3549;42.162;24.726;2022-11-03T12:55:50;47390.31;;;-141.97;30.63
7018;BME280;3549;42.162;24.726;2022-11-03T12:58:16;47392.22;;;-141.97;30.51
7018;BME280;3549;42.162;24.726;2022-11-03T13:00:41;47392.22;;;-141.97;30.59
7018;BME280;3549;42.162;24.726;2022-11-03T13:03:06;47382.63;;;-141.97;30.63
7018;BME280;3549;42.162;24.726;2022-11-03T13:05:32;47378.78;;;-141.97;30.46
7018;BME280;3549;42.162;24.726;2022-11-03T13:07:57;47403.75;;;-141.97;30.83
7018;BME280;3549;42.162;24.726;2022-11-03T13:10:23;47369.16;;;-141.97;30.77
7018;BME280;3549;42.162;24.726;2022-11-03T13:12:48;47373.00;;;-141.97;30.43
7018;BME280;3549;42.162;24.726;2022-11-03T13:15:14;47394.16;;;-141.97;30.55
7018;BME280;3549;42.162;24.726;2022-11-03T13:17:40;47411.44;;;-141.97;30.29
7018;BME280;3549;42.162;24.726;2022-11-03T13:20:06;47497.94;;;-141.97;30.00
7018;BME280;3549;42.162;24.726;2022-11-03T13:22:32;47396.06;;;-141.97;30.38
7018;BME280;3549;42.162;24.726;2022-11-03T13:24:57;47478.72;;;-141.97;30.75
7018;BME280;3549;42.162;24.726;2022-11-03T13:27:23;47388.38;;;-141.97;30.97
7018;BME280;3549;42.162;24.726;2022-11-03T13:29:48;47407.59;;;-141.97;31.04
7018;BME280;3549;42.162;24.726;2022-11-03T13:32:14;47361.47;;;-141.97;30.91
7018;BME280;3549;42.162;24.726;2022-11-03T13:34:39;47371.09;;;-141.97;30.53
7018;BME280;3549;42.162;24.726;2022-11-03T13:37:04;47403.75;;;-141.97;29.99
7018;BME280;3549;42.162;24.726;2022-11-03T13:39:30;47442.19;;;-141.97;29.94
7018;BME280;3549;42.162;24.726;2022-11-03T13:41:55;47388.38;;;-141.97;29.85
7018;BME280;3549;42.162;24.726;2022-11-03T13:44:21;47361.47;;;-141.97;29.62
7018;BME280;3549;42.162;24.726;2022-11-03T13:46:46;47394.16;;;-141.97;30.12
7018;BME280;3549;42.162;24.726;2022-11-03T13:49:11;47371.09;;;-141.97;30.49
7018;BME280;3549;42.162;24.726;2022-11-03T13:51:37;47376.84;;;-141.97;30.75
7018;BME280;3549;42.162;24.726;2022-11-03T13:54:02;47411.44;;;-141.97;31.25
7018;BME280;3549;42.162;24.726;2022-11-03T13:56:28;47382.63;;;-141.97;31.72
7018;BME280;3549;42.162;24.726;2022-11-03T13:58:53;47365.31;;;-141.97;31.64
7018;BME280;3549;42.162;24.726;2022-11-03T14:01:19;47419.13;;;-141.97;31.96
7018;BME280;3549;42.162;24.726;2022-11-03T14:03:45;47434.50;;;-141.97;31.92
7018;BME280;3549;42.162;24.726;2022-11-03T14:06:10;47398.00;;;-141.97;31.89